Time;durP1;ratioP1;P1;durP2;ratioP2;P2;SDS_P1;SDS_P2;PMS_P1;PMS_P2;Temp;Humidity;BMP_temperature;BMP_pressure;BME280_temperature;BME280_humidity;BME280_pressure;Samples;Min_cycle;Max_cycle;Signal;HPM_P1;HPM_P2
2023/12/10 00:00:59;;;;;;;14.32;3.45;;;13.70;99.90;;;;;;5026170;28;20041;-33
2023/12/10 00:03:25;;;;;;;18.23;4.38;;;13.60;99.90;;;;;;5023056;28;20044;-36
2023/12/10 00:05:51;;;;;;;16.88;4.20;;;13.40;99.90;;;;;;5020134;28;20045;-32
2023/12/10 00:08:17;;;;;;;13.48;3.28;;;13.00;99.90;;;;;;5024105;28;20451;-33
2023/12/10 00:10:43;;;;;;;12.05;3.38;;;13.40;99.90;;;;;;5026083;28;20037;-35
2023/12/10 00:13:11;;;;;;;11.98;3.53;;;12.90;99.90;;;;;;5015214;28;20064;-34
2023/12/10 00:15:37;;;;;;;13.35;4.53;;;13.60;99.90;;;;;;5026061;28;20044;-34
2023/12/10 00:18:04;;;;;;;12.55;3.58;;;13.10;99.90;;;;;;5025021;28;20037;-34
2023/12/10 00:20:30;;;;;;;13.63;3.22;;;13.60;99.90;;;;;;5017157;28;20036;-36
2023/12/10 00:22:55;;;;;;;16.45;4.57;;;13.20;99.90;;;;;;5021515;28;20034;-35
2023/12/10 00:25:21;;;;;;;14.63;4.00;;;13.30;99.90;;;;;;5022870;28;20034;-33
2023/12/10 00:27:47;;;;;;;13.82;3.65;;;13.40;99.90;;;;;;5025457;28;20072;-35
2023/12/10 00:30:13;;;;;;;14.35;3.65;;;13.70;99.90;;;;;;5021293;28;20828;-33
2023/12/10 00:32:39;;;;;;;15.23;3.75;;;12.70;99.90;;;;;;5033600;28;20408;-34
2023/12/10 00:35:06;;;;;;;15.63;4.35;;;12.80;99.90;;;;;;5020731;28;20041;-34
2023/12/10 00:37:35;;;;;;;10.98;3.50;;;13.70;99.90;;;;;;5018949;28;20116;-34
2023/12/10 00:40:03;;;;;;;16.33;4.30;;;13.30;99.90;;;;;;5019419;28;20030;-35
2023/12/10 00:42:29;;;;;;;11.20;3.20;;;13.00;99.90;;;;;;5020342;28;20087;-32
2023/12/10 00:44:55;;;;;;;17.30;4.45;;;13.30;99.90;;;;;;5026856;28;20041;-34
2023/12/10 00:47:20;;;;;;;13.77;2.90;;;13.30;99.90;;;;;;5021447;28;20084;-32
2023/12/10 00:49:46;;;;;;;14.23;4.25;;;13.60;99.90;;;;;;5025747;28;20125;-34
2023/12/10 00:52:12;;;;;;;10.90;3.38;;;13.50;99.90;;;;;;5014131;28;20049;-34
2023/12/10 00:54:37;;;;;;;11.82;3.47;;;12.90;99.90;;;;;;5020531;28;20060;-33
2023/12/10 00:57:03;;;;;;;15.70;3.67;;;13.00;99.90;;;;;;5033322;28;20044;-34
2023/12/10 00:59:29;;;;;;;14.73;3.75;;;12.60;99.90;;;;;;5021566;28;20118;-34
2023/12/10 01:01:55;;;;;;;12.98;3.40;;;;;;;;;;5025930;28;20153;-35
2023/12/10 01:04:22;;;;;;;14.60;3.88;;;12.80;99.90;;;;;;5020835;28;20038;-34
2023/12/10 01:06:49;;;;;;;16.42;3.97;;;12.90;99.90;;;;;;5017817;28;20509;-35
2023/12/10 01:09:15;;;;;;;15.40;4.28;;;12.70;99.90;;;;;;5023659;28;20086;-36
2023/12/10 01:11:41;;;;;;;12.57;3.50;;;12.70;99.90;;;;;;5020094;28;20502;-34
2023/12/10 01:14:07;;;;;;;10.98;4.00;;;13.10;99.90;;;;;;5018534;28;20393;-35
2023/12/10 01:16:32;;;;;;;11.98;3.30;;;12.90;99.90;;;;;;5038199;28;20046;-34
2023/12/10 01:18:58;;;;;;;14.10;3.60;;;12.60;99.90;;;;;;5023485;28;20091;-32
2023/12/10 01:21:24;;;;;;;13.68;3.80;;;13.30;99.90;;;;;;5021893;28;20539;-35
2023/12/10 01:23:54;;;;;;;13.70;3.38;;;13.30;99.90;;;;;;5017675;28;20034;-35
2023/12/10 01:26:19;;;;;;;15.43;3.83;;;12.70;99.90;;;;;;5015506;28;20057;-35
2023/12/10 01:28:45;;;;;;;11.85;3.50;;;13.00;99.90;;;;;;5016182;28;20420;-35
2023/12/10 01:31:11;;;;;;;16.00;4.00;;;13.40;99.90;;;;;;5020201;28;20059;-32
2023/12/10 01:33:36;;;;;;;11.88;3.30;;;12.70;99.90;;;;;;5022397;28;20102;-34
2023/12/10 01:36:02;;;;;;;16.33;4.43;;;12.70;99.90;;;;;;5025165;28;20042;-35
2023/12/10 01:38:28;;;;;;;17.30;3.45;;;12.90;99.90;;;;;;5020063;28;20068;-34
2023/12/10 01:40:54;;;;;;;14.25;4.47;;;12.70;99.90;;;;;;5023252;28;20033;-32
2023/12/10 01:43:20;;;;;;;11.93;3.17;;;12.90;99.90;;;;;;5015003;28;20081;-34
2023/12/10 01:45:54;;;;;;;11.77;3.65;;;13.20;99.90;;;;;;5018115;28;20479;-34
2023/12/10 01:48:21;;;;;;;15.70;3.80;;;12.60;99.90;;;;;;5018839;28;20056;-33
2023/12/10 01:50:48;;;;;;;13.05;2.90;;;13.20;99.90;;;;;;5023409;28;20509;-32
2023/12/10 01:53:14;;;;;;;13.10;3.88;;;;;;;;;;5023334;28;20063;-37
2023/12/10 01:55:41;;;;;;;15.18;3.00;;;13.20;99.90;;;;;;5019991;28;20045;-34
2023/12/10 01:58:08;;;;;;;9.15;3.20;;;13.20;99.90;;;;;;5017383;28;20041;-35
2023/12/10 02:00:34;;;;;;;13.75;3.50;;;12.70;99.90;;;;;;5017172;28;20112;-34
2023/12/10 02:03:02;;;;;;;11.18;3.88;;;12.90;99.90;;;;;;5022325;28;20136;-34
2023/12/10 02:05:29;;;;;;;11.52;3.28;;;13.10;99.90;;;;;;5021890;28;21625;-35
2023/12/10 02:07:54;;;;;;;11.10;3.55;;;13.60;99.90;;;;;;5023571;28;20610;-35
2023/12/10 02:10:20;;;;;;;13.07;3.28;;;13.40;99.90;;;;;;5021477;28;20064;-38
2023/12/10 02:12:48;;;;;;;12.48;5.18;;;12.70;99.90;;;;;;5016594;28;20113;-33
2023/12/10 02:15:21;;;;;;;11.35;3.33;;;12.50;99.90;;;;;;5015599;28;20560;-35
2023/12/10 02:17:47;;;;;;;14.23;3.70;;;12.90;99.90;;;;;;5015768;28;20399;-34
2023/12/10 02:20:16;;;;;;;15.15;3.72;;;13.50;99.90;;;;;;5020935;28;20045;-34
2023/12/10 02:22:55;;;;;;;12.13;3.95;;;12.50;99.90;;;;;;5022317;28;20037;-33
2023/12/10 02:25:31;;;;;;;10.80;3.90;;;13.40;99.90;;;;;;5024071;28;20089;-35
2023/12/10 02:27:58;;;;;;;12.77;2.85;;;13.20;99.90;;;;;;5022801;28;20523;-34
2023/12/10 02:30:23;;;;;;;13.18;3.08;;;13.30;99.90;;;;;;5020146;28;20033;-36
2023/12/10 02:32:49;;;;;;;11.30;2.83;;;12.90;99.90;;;;;;5017552;28;20044;-34
2023/12/10 02:35:15;;;;;;;10.75;2.47;;;12.80;99.90;;;;;;5018729;28;20045;-35
2023/12/10 02:37:41;;;;;;;9.05;3.10;;;12.70;99.90;;;;;;5036338;28;20052;-35
2023/12/10 02:40:07;;;;;;;12.43;2.85;;;12.70;99.90;;;;;;5018166;28;20415;-35
2023/12/10 02:42:33;;;;;;;15.13;3.97;;;12.70;99.90;;;;;;5023012;28;20029;-35
2023/12/10 02:44:58;;;;;;;10.10;3.72;;;12.90;99.90;;;;;;5022402;28;20041;-35
2023/12/10 02:47:24;;;;;;;15.30;3.85;;;13.10;99.90;;;;;;5017478;28;20034;-35
2023/12/10 02:49:50;;;;;;;10.90;3.38;;;12.50;99.90;;;;;;5018926;28;20037;-35
2023/12/10 02:52:15;;;;;;;12.48;3.47;;;12.80;99.90;;;;;;5021189;28;20041;-34
2023/12/10 02:54:41;;;;;;;10.48;3.30;;;13.00;99.90;;;;;;5021570;28;20034;-36
2023/12/10 02:57:07;;;;;;;9.95;3.40;;;12.80;99.90;;;;;;5021818;28;20737;-34
2023/12/10 02:59:32;;;;;;;11.70;2.78;;;12.60;99.90;;;;;;5018179;28;20485;-34
2023/12/10 03:01:58;;;;;;;11.93;3.20;;;13.20;99.90;;;;;;5014351;28;20409;-35
2023/12/10 03:04:24;;;;;;;10.02;2.42;;;12.80;99.90;;;;;;5015465;28;20046;-32
2023/12/10 03:06:49;;;;;;;9.73;2.80;;;13.20;99.90;;;;;;5017095;28;20135;-35
2023/12/10 03:09:15;;;;;;;9.65;2.40;;;13.10;99.90;;;;;;5017891;28;20037;-37
2023/12/10 03:11:41;;;;;;;9.98;2.88;;;12.80;99.90;;;;;;5020948;28;20041;-34
2023/12/10 03:14:06;;;;;;;8.75;2.80;;;12.40;99.90;;;;;;5023631;28;20048;-35
2023/12/10 03:16:32;;;;;;;8.15;2.50;;;12.90;99.90;;;;;;5017737;28;20501;-33
2023/12/10 03:18:58;;;;;;;12.68;3.08;;;12.40;99.90;;;;;;5029670;28;20074;-34
2023/12/10 03:21:23;;;;;;;11.32;2.78;;;13.20;99.90;;;;;;5017549;28;20033;-35
2023/12/10 03:23:49;;;;;;;12.07;3.05;;;12.70;99.90;;;;;;5021856;28;20033;-35
2023/12/10 03:26:16;;;;;;;8.18;2.20;;;13.10;99.90;;;;;;5019827;28;20044;-33
2023/12/10 03:28:41;;;;;;;13.07;3.08;;;12.90;99.90;;;;;;5022517;28;20050;-35
2023/12/10 03:31:07;;;;;;;7.85;2.45;;;12.60;99.90;;;;;;5016942;28;20091;-35
2023/12/10 03:33:34;;;;;;;11.35;3.13;;;12.20;99.90;;;;;;5028172;28;20045;-35
2023/12/10 03:36:00;;;;;;;11.20;4.10;;;12.70;99.90;;;;;;5021044;28;20064;-35
2023/12/10 03:38:26;;;;;;;9.82;2.35;;;12.90;99.90;;;;;;5019813;28;20400;-34
2023/12/10 03:40:52;;;;;;;10.75;2.60;;;13.00;99.90;;;;;;5017866;28;20029;-35
2023/12/10 03:43:17;;;;;;;12.82;3.28;;;12.50;99.90;;;;;;5024897;28;20029;-35
2023/12/10 03:45:43;;;;;;;14.02;3.17;;;12.80;99.90;;;;;;5017125;28;20099;-34
2023/12/10 03:48:08;;;;;;;11.23;3.33;;;12.90;99.90;;;;;;5017570;28;20080;-35
2023/12/10 03:50:34;;;;;;;12.63;3.42;;;12.40;99.90;;;;;;5016086;28;20045;-35
2023/12/10 03:53:00;;;;;;;11.18;3.20;;;13.00;99.90;;;;;;5023688;28;20132;-36
2023/12/10 03:55:25;;;;;;;9.75;3.10;;;12.60;99.90;;;;;;5022967;28;20029;-34
2023/12/10 03:57:51;;;;;;;12.25;3.15;;;12.60;99.90;;;;;;5023893;28;20116;-38
2023/12/10 04:00:17;;;;;;;10.82;3.25;;;12.10;99.90;;;;;;5018375;28;20458;-34
2023/12/10 04:02:43;;;;;;;14.07;3.92;;;12.30;99.90;;;;;;5024925;28;20049;-35
2023/12/10 04:05:11;;;;;;;10.20;2.92;;;12.20;99.90;;;;;;5038098;28;20046;-33
2023/12/10 04:07:39;;;;;;;15.35;3.90;;;12.70;99.90;;;;;;5036325;28;21518;-33
2023/12/10 04:10:08;;;;;;;11.02;3.35;;;12.80;99.90;;;;;;5022513;28;20120;-37
2023/12/10 04:12:34;;;;;;;11.55;3.17;;;12.40;99.90;;;;;;5019923;28;20401;-34
2023/12/10 04:15:00;;;;;;;14.55;3.60;;;12.70;99.90;;;;;;5026355;28;20033;-35
2023/12/10 04:17:25;;;;;;;10.15;3.38;;;12.30;99.90;;;;;;5016836;28;20493;-33
2023/12/10 04:19:51;;;;;;;13.15;3.92;;;12.90;99.90;;;;;;5029160;28;20041;-35
2023/12/10 04:22:17;;;;;;;17.35;3.72;;;12.70;99.90;;;;;;5026028;28;20041;-34
2023/12/10 04:24:42;;;;;;;14.82;3.92;;;12.40;99.90;;;;;;5027806;28;20041;-34
2023/12/10 04:27:08;;;;;;;11.27;3.40;;;12.80;99.90;;;;;;5024369;28;20088;-35
2023/12/10 04:29:34;;;;;;;13.80;3.88;;;12.10;99.90;;;;;;5026862;28;20083;-35
2023/12/10 04:32:00;;;;;;;16.92;4.22;;;12.80;99.90;;;;;;5022567;28;20045;-35
2023/12/10 04:34:25;;;;;;;12.40;3.38;;;12.60;99.90;;;;;;5024673;28;20034;-35
2023/12/10 04:36:51;;;;;;;13.23;3.30;;;12.10;99.90;;;;;;5024091;28;20556;-34
2023/12/10 04:39:17;;;;;;;14.25;3.50;;;12.00;99.90;;;;;;5037751;28;20030;-33
2023/12/10 04:41:42;;;;;;;14.60;3.85;;;12.30;99.90;;;;;;5031311;28;20053;-35
2023/12/10 04:44:08;;;;;;;13.75;4.53;;;12.10;99.90;;;;;;5026209;28;20073;-33
2023/12/10 04:46:34;;;;;;;12.40;3.30;;;12.60;99.90;;;;;;5025777;28;20041;-35
2023/12/10 04:48:59;;;;;;;16.80;4.05;;;12.00;99.90;;;;;;5028896;28;20037;-35
2023/12/10 04:51:25;;;;;;;12.27;2.97;;;12.00;99.90;;;;;;5022125;28;20146;-35
2023/12/10 04:53:51;;;;;;;12.30;3.30;;;12.10;99.90;;;;;;5029264;28;20032;-34
2023/12/10 04:56:17;;;;;;;14.40;3.70;;;12.00;99.90;;;;;;5029400;28;20029;-37
2023/12/10 04:58:43;;;;;;;8.57;3.00;;;12.20;99.90;;;;;;5021435;28;20049;-34
2023/12/10 05:01:08;;;;;;;12.60;3.38;;;12.50;99.90;;;;;;5027846;28;20049;-34
2023/12/10 05:03:34;;;;;;;13.88;3.92;;;12.20;99.90;;;;;;5023008;28;20117;-34
2023/12/10 05:06:01;;;;;;;12.82;3.60;;;12.40;99.90;;;;;;5032279;28;20045;-33
2023/12/10 05:08:26;;;;;;;11.63;2.83;;;12.60;99.90;;;;;;5029098;28;20053;-33
2023/12/10 05:10:52;;;;;;;12.52;3.50;;;12.90;99.90;;;;;;5028376;28;20125;-35
2023/12/10 05:13:18;;;;;;;13.18;3.90;;;12.60;99.90;;;;;;5025795;28;20037;-35
2023/12/10 05:15:44;;;;;;;12.02;3.17;;;12.70;99.90;;;;;;5018024;28;20088;-36
2023/12/10 05:18:09;;;;;;;11.70;2.67;;;13.10;99.90;;;;;;5024692;28;20095;-35
2023/12/10 05:20:35;;;;;;;10.65;2.80;;;12.90;99.90;;;;;;5021191;28;20037;-35
2023/12/10 05:23:01;;;;;;;8.45;2.38;;;12.10;99.90;;;;;;5028215;28;20044;-34
2023/12/10 05:25:30;;;;;;;7.97;2.30;;;12.20;99.90;;;;;;5029060;28;20034;-34
2023/12/10 05:27:57;;;;;;;10.70;3.13;;;12.20;99.90;;;;;;5023091;28;20045;-37
2023/12/10 05:30:22;;;;;;;14.45;3.47;;;12.40;99.90;;;;;;5026163;28;20433;-35
2023/12/10 05:32:48;;;;;;;13.95;3.33;;;12.80;99.90;;;;;;5020592;28;20077;-34
2023/12/10 05:35:14;;;;;;;9.20;2.45;;;13.30;99.90;;;;;;5022080;28;20122;-34
2023/12/10 05:37:39;;;;;;;9.32;3.10;;;12.40;99.90;;;;;;5024225;28;20061;-36
2023/12/10 05:40:06;;;;;;;10.93;2.50;;;12.40;99.90;;;;;;5029429;28;20060;-34
2023/12/10 05:42:31;;;;;;;9.18;2.58;;;13.30;99.90;;;;;;5024290;28;20112;-34
2023/12/10 05:44:58;;;;;;;12.02;2.65;;;13.30;99.90;;;;;;5022189;28;20034;-35
2023/12/10 05:47:24;;;;;;;8.43;2.20;;;13.20;99.90;;;;;;5021948;28;20029;-34
2023/12/10 05:49:50;;;;;;;7.43;2.28;;;13.00;99.90;;;;;;5026797;28;20038;-36
2023/12/10 05:52:16;;;;;;;9.82;2.60;;;12.60;99.90;;;;;;5024278;28;20033;-35
2023/12/10 05:54:42;;;;;;;7.93;2.05;;;12.90;99.90;;;;;;5023838;28;20048;-35
2023/12/10 05:57:07;;;;;;;10.07;2.03;;;12.90;99.90;;;;;;5025735;28;20456;-34
2023/12/10 05:59:33;;;;;;;7.15;2.10;;;13.30;99.90;;;;;;5028072;28;20167;-37
2023/12/10 06:01:59;;;;;;;6.20;2.10;;;13.40;99.90;;;;;;5026973;28;20413;-35
2023/12/10 06:04:24;;;;;;;8.98;2.42;;;13.10;99.90;;;;;;5024917;28;20042;-34
2023/12/10 06:06:50;;;;;;;6.68;2.15;;;13.60;99.90;;;;;;5022443;28;20034;-34
2023/12/10 06:09:16;;;;;;;10.55;2.63;;;12.90;99.90;;;;;;5029470;28;20091;-34
2023/12/10 06:11:42;;;;;;;8.65;2.30;;;12.70;99.90;;;;;;5030059;28;20026;-35
2023/12/10 06:14:07;;;;;;;7.90;2.03;;;12.90;99.90;;;;;;5028598;28;20451;-34
2023/12/10 06:16:33;;;;;;;5.05;1.67;;;13.30;99.90;;;;;;5030195;28;20033;-37
2023/12/10 06:18:59;;;;;;;6.72;2.50;;;13.50;99.90;;;;;;5027007;28;20039;-34
2023/12/10 06:21:24;;;;;;;7.57;2.10;;;13.50;99.90;;;;;;5025892;28;20056;-32
2023/12/10 06:23:50;;;;;;;9.95;1.90;;;13.40;99.90;;;;;;5020402;28;20042;-33
2023/12/10 06:26:16;;;;;;;7.57;1.85;;;13.50;99.90;;;;;;5029881;28;20041;-35
2023/12/10 06:28:41;;;;;;;7.18;1.85;;;12.80;99.90;;;;;;5028402;28;20041;-34
2023/12/10 06:31:07;;;;;;;7.63;2.05;;;13.10;99.90;;;;;;5028831;28;20041;-34
2023/12/10 06:33:33;;;;;;;7.47;1.92;;;13.80;99.90;;;;;;5028243;28;20060;-36
2023/12/10 06:35:58;;;;;;;8.48;2.08;;;13.60;99.90;;;;;;5028993;28;20111;-36
2023/12/10 06:38:24;;;;;;;9.10;2.10;;;13.70;99.90;;;;;;5023982;28;20041;-35
2023/12/10 06:40:51;;;;;;;6.88;1.98;;;13.30;99.90;;;;;;5023926;28;20488;-34
2023/12/10 06:43:17;;;;;;;6.03;1.75;;;13.40;99.90;;;;;;5021267;28;20095;-36
2023/12/10 06:45:42;;;;;;;9.93;1.92;;;13.20;99.90;;;;;;5028141;28;20128;-34
2023/12/10 06:48:08;;;;;;;6.68;1.80;;;12.90;99.90;;;;;;5025530;28;20124;-35
2023/12/10 06:50:34;;;;;;;6.78;1.85;;;13.00;99.90;;;;;;5029525;28;20037;-33
2023/12/10 06:53:00;;;;;;;6.40;1.50;;;13.60;99.90;;;;;;5028286;28;20056;-36
2023/12/10 06:55:26;;;;;;;8.82;2.08;;;13.20;99.90;;;;;;5027062;28;20104;-34
2023/12/10 06:57:51;;;;;;;7.05;2.03;;;13.40;99.90;;;;;;5028624;28;20045;-33
2023/12/10 07:00:20;;;;;;;6.70;1.58;;;13.20;99.90;;;;;;5018868;28;20489;-35
2023/12/10 07:02:45;;;;;;;6.97;1.90;;;13.50;99.90;;;;;;5023173;28;20413;-35
2023/12/10 07:05:11;;;;;;;8.70;1.83;;;14.10;99.90;;;;;;5026419;28;20041;-35
2023/12/10 07:07:37;;;;;;;6.05;1.98;;;13.50;99.90;;;;;;5024965;28;20121;-33
2023/12/10 07:10:03;;;;;;;6.43;1.75;;;13.70;99.90;;;;;;5020735;28;20460;-35
2023/12/10 07:12:29;;;;;;;6.00;1.83;;;13.70;99.90;;;;;;5029471;28;20045;-32
2023/12/10 07:14:54;;;;;;;6.50;1.95;;;13.60;99.90;;;;;;5027742;28;20071;-35
2023/12/10 07:17:20;;;;;;;6.53;1.50;;;14.10;99.90;;;;;;5029505;28;20045;-34
2023/12/10 07:19:46;;;;;;;4.93;1.23;;;13.70;99.90;;;;;;5026913;28;20147;-35
2023/12/10 07:22:11;;;;;;;6.60;1.95;;;14.00;99.90;;;;;;5025949;28;20045;-32
2023/12/10 07:24:38;;;;;;;5.80;1.73;;;13.80;99.90;;;;;;5028941;28;20037;-35
2023/12/10 07:27:04;;;;;;;8.45;1.70;;;13.60;99.90;;;;;;5021373;28;20095;-36
2023/12/10 07:29:29;;;;;;;7.40;1.60;;;13.80;99.90;;;;;;5027408;28;20041;-35
2023/12/10 07:31:55;;;;;;;6.68;1.92;;;13.30;99.90;;;;;;5028342;28;20029;-35
2023/12/10 07:34:20;;;;;;;6.32;1.83;;;13.80;99.90;;;;;;5027782;28;20065;-34
2023/12/10 07:36:46;;;;;;;7.80;1.83;;;13.80;99.90;;;;;;5026053;28;20042;-35
2023/12/10 07:39:13;;;;;;;10.20;2.33;;;13.90;99.90;;;;;;5026492;28;20072;-35
2023/12/10 07:41:39;;;;;;;4.63;1.50;;;14.10;99.90;;;;;;5043614;28;20034;-34
2023/12/10 07:44:05;;;;;;;5.18;1.50;;;13.90;99.90;;;;;;5022230;28;20052;-34
2023/12/10 07:46:30;;;;;;;6.28;2.05;;;13.80;99.90;;;;;;5020513;28;20037;-35
2023/12/10 07:48:56;;;;;;;5.32;1.60;;;13.90;99.90;;;;;;5021165;28;20168;-34
2023/12/10 07:51:22;;;;;;;8.90;2.65;;;13.80;99.90;;;;;;5026408;28;20091;-34
2023/12/10 07:53:48;;;;;;;12.07;3.00;;;14.00;99.90;;;;;;5024912;28;20416;-33
2023/12/10 07:56:14;;;;;;;24.20;7.30;;;14.10;99.90;;;;;;5023099;28;20045;-35
2023/12/10 07:58:40;;;;;;;39.13;12.30;;;14.20;99.90;;;;;;5019597;28;20036;-36
2023/12/10 08:01:09;;;;;;;29.38;8.25;;;14.40;99.90;;;;;;5024325;28;20033;-32
2023/12/10 08:03:35;;;;;;;23.58;6.75;;;14.10;99.90;;;;;;5023660;28;20083;-34
2023/12/10 08:06:01;;;;;;;27.67;6.13;;;14.50;99.90;;;;;;5026521;28;20037;-35
2023/12/10 08:08:27;;;;;;;32.72;7.80;;;13.90;99.90;;;;;;5022559;28;20140;-34
2023/12/10 08:10:53;;;;;;;26.63;6.25;;;14.10;1.00;;;;;;5026828;28;20144;-34
2023/12/10 08:13:18;;;;;;;17.10;5.75;;;13.80;1.00;;;;;;5023543;28;20512;-33
2023/12/10 08:15:44;;;;;;;20.92;6.15;;;13.80;1.00;;;;;;5028339;28;20033;-34
2023/12/10 08:18:10;;;;;;;16.48;5.65;;;14.00;1.00;;;;;;5026635;28;20042;-35
2023/12/10 08:20:35;;;;;;;22.30;5.93;;;14.00;1.00;;;;;;5027933;28;20386;-34
2023/12/10 08:23:01;;;;;;;14.75;5.22;;;14.20;1.00;;;;;;5019771;28;20042;-36
2023/12/10 08:25:27;;;;;;;14.82;5.28;;;14.20;1.00;;;;;;5025972;28;20072;-36
2023/12/10 08:27:53;;;;;;;19.58;4.78;;;14.30;1.00;;;;;;5022745;28;20034;-37
2023/12/10 08:30:19;;;;;;;14.20;4.72;;;;;;;;;;5028031;28;20038;-35
2023/12/10 08:32:45;;;;;;;21.00;5.63;;;14.00;1.00;;;;;;5028835;28;20041;-34
2023/12/10 08:35:10;;;;;;;16.90;5.78;;;14.30;1.00;;;;;;5023514;28;20126;-35
2023/12/10 08:37:38;;;;;;;17.60;5.45;;;14.40;1.00;;;;;;5027561;28;20049;-35
2023/12/10 08:40:06;;;;;;;15.20;4.63;;;14.20;1.00;;;;;;5028701;28;20521;-34
2023/12/10 08:42:32;;;;;;;13.68;4.05;;;14.60;1.00;;;;;;5022628;28;20037;-35
2023/12/10 08:44:58;;;;;;;16.13;4.55;;;14.30;1.00;;;;;;5026966;28;20075;-36
2023/12/10 08:47:24;;;;;;;14.25;4.60;;;14.60;1.00;;;;;;5025942;28;20037;-35
2023/12/10 08:49:51;;;;;;;15.48;3.80;;;14.30;1.00;;;;;;5025282;28;20819;-34
2023/12/10 08:52:17;;;;;;;13.95;3.92;;;14.30;1.00;;;;;;5028510;28;20433;-35
2023/12/10 08:54:42;;;;;;;14.75;4.00;;;14.20;1.00;;;;;;5027516;28;20061;-36
2023/12/10 08:57:08;;;;;;;14.38;3.90;;;13.80;1.00;;;;;;5030858;28;20037;-35
2023/12/10 08:59:34;;;;;;;14.18;4.43;;;14.20;1.00;;;;;;5025969;28;20452;-35
2023/12/10 09:01:59;;;;;;;13.70;3.78;;;14.60;1.00;;;;;;5024755;28;20570;-37
2023/12/10 09:04:25;;;;;;;12.25;3.55;;;14.10;1.00;;;;;;5028771;28;20033;-35
2023/12/10 09:06:51;;;;;;;15.50;4.45;;;14.30;1.00;;;;;;5033230;28;20040;-35
2023/12/10 09:09:16;;;;;;;12.32;3.60;;;14.10;1.00;;;;;;5030446;28;20045;-35
2023/12/10 09:11:42;;;;;;;8.55;3.30;;;14.50;1.00;;;;;;5029556;28;20034;-35
2023/12/10 09:14:10;;;;;;;13.90;4.13;;;14.40;1.00;;;;;;5030784;28;20050;-35
2023/12/10 09:16:36;;;;;;;12.30;3.63;;;14.60;1.00;;;;;;5027025;28;20523;-35
2023/12/10 09:19:02;;;;;;;9.77;3.15;;;14.00;1.00;;;;;;5023066;28;20033;-35
2023/12/10 09:21:28;;;;;;;11.77;3.28;;;14.10;1.00;;;;;;5032406;28;20042;-35
2023/12/10 09:23:53;;;;;;;11.38;2.92;;;14.30;1.00;;;;;;5026771;28;20037;-35
2023/12/10 09:26:19;;;;;;;13.40;3.22;;;14.40;1.00;;;;;;5019916;28;20104;-34
2023/12/10 09:28:45;;;;;;;10.75;3.40;;;14.20;1.00;;;;;;5019543;28;20041;-34
2023/12/10 09:31:11;;;;;;;9.05;2.67;;;14.20;1.00;;;;;;5021712;28;20057;-34
2023/12/10 09:33:37;;;;;;;12.88;3.67;;;14.20;1.00;;;;;;5023484;28;20038;-32
2023/12/10 09:36:02;;;;;;;9.05;2.88;;;14.90;1.00;;;;;;5022278;28;20045;-35
2023/12/10 09:38:28;;;;;;;10.65;3.10;;;14.30;1.00;;;;;;5029494;28;20373;-34
2023/12/10 09:40:54;;;;;;;10.85;2.83;;;14.80;1.00;;;;;;5023241;28;20095;-35
2023/12/10 09:43:20;;;;;;;9.60;2.67;;;14.30;1.00;;;;;;5024139;28;20033;-34
2023/12/10 09:45:45;;;;;;;9.77;2.78;;;14.30;1.00;;;;;;5021875;28;20034;-36
2023/12/10 09:48:11;;;;;;;12.68;3.35;;;14.20;1.00;;;;;;5021242;28;20041;-37
2023/12/10 09:50:42;;;;;;;11.55;3.55;;;14.10;1.00;;;;;;5022089;28;20030;-34
2023/12/10 09:53:10;;;;;;;9.65;2.50;;;14.70;99.90;;;;;;5019898;28;20099;-32
2023/12/10 09:55:35;;;;;;;10.95;3.47;;;14.30;1.00;;;;;;5025931;28;20042;-35
2023/12/10 09:58:02;;;;;;;10.48;3.55;;;14.00;1.00;;;;;;5023921;28;20065;-34
2023/12/10 10:00:28;;;;;;;9.85;2.33;;;13.90;1.00;;;;;;5018808;28;20440;-35
2023/12/10 10:03:01;;;;;;;10.40;3.10;;;14.10;1.00;;;;;;5020097;28;20045;-35
2023/12/10 10:05:27;;;;;;;9.98;2.78;;;14.40;1.00;;;;;;5033920;28;20457;-35
2023/12/10 10:07:53;;;;;;;9.88;3.45;;;;;;;;;;5021548;28;20042;-32
2023/12/10 10:10:22;;;;;;;10.75;2.70;;;14.20;99.90;;;;;;5025037;28;20416;-34
2023/12/10 10:12:48;;;;;;;11.40;3.42;;;14.60;1.00;;;;;;5026202;28;20039;-34
2023/12/10 10:15:24;;;;;;;23.63;5.85;;;14.70;99.90;;;;;;5025994;28;20046;-34
2023/12/10 10:17:50;;;;;;;19.58;6.75;;;14.20;99.90;;;;;;5026728;28;20052;-36
2023/12/10 10:20:16;;;;;;;20.38;5.70;;;14.00;99.90;;;;;;5021989;28;20037;-35
2023/12/10 10:22:42;;;;;;;19.17;5.05;;;14.00;99.90;;;;;;5021593;28;20128;-34
2023/12/10 10:25:08;;;;;;;16.90;4.80;;;14.60;99.90;;;;;;5024652;28;20112;-32
2023/12/10 10:27:34;;;;;;;16.85;5.97;;;13.70;99.90;;;;;;5020822;28;20044;-35
2023/12/10 10:30:03;;;;;;;17.58;4.47;;;14.10;99.90;;;;;;5023411;28;20128;-34
2023/12/10 10:32:30;;;;;;;18.23;5.55;;;14.10;99.90;;;;;;5025465;28;20034;-32
2023/12/10 10:34:56;;;;;;;17.55;5.70;;;13.70;99.90;;;;;;5015597;28;20067;-35
2023/12/10 10:37:22;;;;;;;13.40;4.25;;;14.40;99.90;;;;;;5020896;28;20048;-34
2023/12/10 10:39:49;;;;;;;19.67;5.47;;;14.30;99.90;;;;;;5030444;28;20033;-35
2023/12/10 10:42:19;;;;;;;12.18;4.22;;;14.40;99.90;;;;;;5024193;28;20094;-34
2023/12/10 10:44:46;;;;;;;16.75;5.10;;;14.50;99.90;;;;;;5024816;28;20049;-37
2023/12/10 10:47:12;;;;;;;16.02;5.00;;;13.90;99.90;;;;;;5025477;28;20045;-33
2023/12/10 10:49:45;;;;;;;21.73;4.75;;;13.80;99.90;;;;;;5019474;28;20073;-35
2023/12/10 10:52:19;;;;;;;16.52;4.65;;;13.60;99.90;;;;;;5017984;28;20417;-33
2023/12/10 10:54:46;;;;;;;13.82;4.35;;;13.70;99.90;;;;;;5020948;28;20069;-33
2023/12/10 10:57:12;;;;;;;19.05;4.70;;;13.80;99.90;;;;;;5021007;28;20124;-36
2023/12/10 10:59:38;;;;;;;16.17;4.63;;;14.10;99.90;;;;;;5022772;28;20121;-36
2023/12/10 11:02:08;;;;;;;10.82;4.18;;;14.40;99.90;;;;;;5023234;28;20041;-35
2023/12/10 11:04:37;;;;;;;14.85;4.40;;;13.60;99.90;;;;;;5025095;28;20129;-33
2023/12/10 11:07:05;;;;;;;15.63;4.32;;;13.60;99.90;;;;;;5027446;28;20060;-34
2023/12/10 11:09:32;;;;;;;16.27;4.50;;;13.80;99.90;;;;;;5032989;28;20056;-37
2023/12/10 11:11:58;;;;;;;16.52;4.15;;;13.70;99.90;;;;;;5024493;28;20037;-37
2023/12/10 11:14:25;;;;;;;13.63;4.00;;;14.50;99.90;;;;;;5023579;28;20489;-34
2023/12/10 11:17:01;;;;;;;16.95;5.15;;;14.10;99.90;;;;;;5021133;28;20038;-34
2023/12/10 11:19:28;;;;;;;16.63;5.15;;;13.80;99.90;;;;;;5022370;28;20500;-34
2023/12/10 11:21:55;;;;;;;13.98;3.65;;;13.90;99.90;;;;;;5044960;28;20095;-35
2023/12/10 11:24:20;;;;;;;15.32;4.60;;;14.30;99.90;;;;;;5026627;28;20396;-37
2023/12/10 11:26:46;;;;;;;12.38;4.22;;;13.80;99.90;;;;;;5022380;28;20030;-34
2023/12/10 11:29:12;;;;;;;12.75;4.22;;;13.40;99.90;;;;;;5027827;28;20179;-34
2023/12/10 11:31:38;;;;;;;15.23;3.92;;;13.60;99.90;;;;;;5025601;28;20038;-34
2023/12/10 11:34:04;;;;;;;12.50;4.00;;;13.80;99.90;;;;;;5029714;28;20044;-35
2023/12/10 11:36:30;;;;;;;15.77;3.80;;;14.00;99.90;;;;;;5027006;28;20081;-36
2023/12/10 11:38:56;;;;;;;14.18;4.80;;;13.90;99.90;;;;;;5046224;28;20057;-36
2023/12/10 11:41:23;;;;;;;12.88;4.28;;;13.90;99.90;;;;;;5031051;28;20481;-37
2023/12/10 11:43:49;;;;;;;13.95;3.85;;;13.90;99.90;;;;;;5030950;28;20038;-36
2023/12/10 11:46:22;;;;;;;13.52;4.40;;;13.90;99.90;;;;;;5033628;28;20119;-34
2023/12/10 11:48:49;;;;;;;12.80;3.58;;;13.90;99.90;;;;;;5032016;28;20045;-35
2023/12/10 11:51:17;;;;;;;10.90;3.53;;;13.30;99.90;;;;;;5033768;28;20053;-35
2023/12/10 11:53:43;;;;;;;13.48;3.70;;;13.90;99.90;;;;;;5029813;28;20052;-34
2023/12/10 11:56:09;;;;;;;12.25;3.50;;;13.90;99.90;;;;;;5041013;28;20132;-32
2023/12/10 11:58:35;;;;;;;13.32;3.13;;;13.80;99.90;;;;;;5035541;28;20088;-34
2023/12/10 12:01:02;;;;;;;13.05;4.25;;;13.50;99.90;;;;;;5032324;28;20044;-34
2023/12/10 12:03:31;;;;;;;12.40;3.67;;;13.90;99.90;;;;;;5036030;28;20076;-34
2023/12/10 12:05:56;;;;;;;11.60;3.60;;;14.10;99.90;;;;;;5028167;28;20033;-37
2023/12/10 12:08:27;;;;;;;12.52;3.80;;;14.20;99.90;;;;;;5030733;28;20689;-34
2023/12/10 12:10:53;;;;;;;14.68;3.67;;;13.60;99.90;;;;;;5031588;28;20037;-35
2023/12/10 12:13:19;;;;;;;14.43;3.97;;;14.10;99.90;;;;;;5027323;28;20044;-35
2023/12/10 12:15:46;;;;;;;15.85;4.25;;;14.00;99.90;;;;;;5025259;28;20034;-35
2023/12/10 12:18:12;;;;;;;16.90;4.53;;;13.70;99.90;;;;;;5026194;28;20060;-35
2023/12/10 12:20:39;;;;;;;14.80;4.38;;;13.90;99.90;;;;;;5029091;28;20053;-33
2023/12/10 12:23:05;;;;;;;11.15;4.07;;;14.10;99.90;;;;;;5028165;28;20200;-35
2023/12/10 12:25:34;;;;;;;13.10;4.03;;;13.60;99.90;;;;;;5029817;28;20120;-36
2023/12/10 12:28:05;;;;;;;11.50;3.03;;;13.60;99.90;;;;;;5024914;28;20492;-34
2023/12/10 12:30:31;;;;;;;12.68;3.95;;;14.10;99.90;;;;;;5023013;28;20053;-34
2023/12/10 12:32:57;;;;;;;13.82;3.53;;;14.10;99.90;;;;;;5021457;28;20041;-36
2023/12/10 12:35:23;;;;;;;12.00;3.80;;;13.80;99.90;;;;;;5024005;28;20042;-34
2023/12/10 12:37:48;;;;;;;10.95;3.38;;;13.70;99.90;;;;;;5026609;28;20034;-34